sensor_id;sensor_type;location;lat;lon;timestamp;temperature;humidity
74940;HTU21D;63505;45.226;37.908;2023-07-29T00:00:54;20.64;69.60
74940;HTU21D;63505;45.226;37.908;2023-07-29T00:03:21;20.55;69.84
74940;HTU21D;63505;45.226;37.908;2023-07-29T00:05:47;20.46;70.04
74940;HTU21D;63505;45.226;37.908;2023-07-29T00:08:13;20.37;70.23
74940;HTU21D;63505;45.226;37.908;2023-07-29T00:10:39;20.31;70.35
74940;HTU21D;63505;45.226;37.908;2023-07-29T00:13:05;20.25;70.49
74940;HTU21D;63505;45.226;37.908;2023-07-29T00:15:32;20.21;70.58
74940;HTU21D;63505;45.226;37.908;2023-07-29T00:17:57;20.18;70.66
74940;HTU21D;63505;45.226;37.908;2023-07-29T00:20:23;20.14;70.76
74940;HTU21D;63505;45.226;37.908;2023-07-29T00:22:49;20.11;70.87
74940;HTU21D;63505;45.226;37.908;2023-07-29T00:25:18;20.11;70.89
74940;HTU21D;63505;45.226;37.908;2023-07-29T00:27:44;20.11;70.93
74940;HTU21D;63505;45.226;37.908;2023-07-29T00:30:10;20.10;70.97
74940;HTU21D;63505;45.226;37.908;2023-07-29T00:32:36;20.07;71.06
74940;HTU21D;63505;45.226;37.908;2023-07-29T00:35:03;20.09;71.12
74940;HTU21D;63505;45.226;37.908;2023-07-29T00:37:30;20.09;71.16
74940;HTU21D;63505;45.226;37.908;2023-07-29T00:39:56;20.07;71.26
74940;HTU21D;63505;45.226;37.908;2023-07-29T00:42:23;20.06;71.32
74940;HTU21D;63505;45.226;37.908;2023-07-29T00:44:49;20.06;71.38
74940;HTU21D;63505;45.226;37.908;2023-07-29T00:47:15;20.05;71.42
74940;HTU21D;63505;45.226;37.908;2023-07-29T00:49:43;20.07;71.43
74940;HTU21D;63505;45.226;37.908;2023-07-29T00:52:10;20.06;71.46
74940;HTU21D;63505;45.226;37.908;2023-07-29T00:54:42;20.07;71.50
74940;HTU21D;63505;45.226;37.908;2023-07-29T00:57:08;20.07;71.52
74940;HTU21D;63505;45.226;37.908;2023-07-29T00:59:36;20.06;71.56
74940;HTU21D;63505;45.226;37.908;2023-07-29T01:02:02;20.05;71.59
74940;HTU21D;63505;45.226;37.908;2023-07-29T01:04:31;20.03;71.64
74940;HTU21D;63505;45.226;37.908;2023-07-29T01:07:20;20.02;71.75
74940;HTU21D;63505;45.226;37.908;2023-07-29T01:09:58;20.00;71.77
74940;HTU21D;63505;45.226;37.908;2023-07-29T01:15:19;19.97;71.93
74940;HTU21D;63505;45.226;37.908;2023-07-29T01:18:05;19.95;72.03
74940;HTU21D;63505;45.226;37.908;2023-07-29T01:20:34;19.91;72.06
74940;HTU21D;63505;45.226;37.908;2023-07-29T01:23:02;19.89;72.13
74940;HTU21D;63505;45.226;37.908;2023-07-29T01:25:28;19.87;72.22
74940;HTU21D;63505;45.226;37.908;2023-07-29T01:27:54;19.83;72.34
74940;HTU21D;63505;45.226;37.908;2023-07-29T01:30:25;19.83;72.43
74940;HTU21D;63505;45.226;37.908;2023-07-29T01:33:14;19.81;72.56
74940;HTU21D;63505;45.226;37.908;2023-07-29T01:35:52;19.79;72.64
74940;HTU21D;63505;45.226;37.908;2023-07-29T01:38:28;19.76;72.76
74940;HTU21D;63505;45.226;37.908;2023-07-29T01:40:58;19.74;72.80
74940;HTU21D;63505;45.226;37.908;2023-07-29T01:43:25;19.72;72.92
74940;HTU21D;63505;45.226;37.908;2023-07-29T01:45:52;19.69;73.03
74940;HTU21D;63505;45.226;37.908;2023-07-29T01:48:18;19.67;73.11
74940;HTU21D;63505;45.226;37.908;2023-07-29T01:50:44;19.63;73.20
74940;HTU21D;63505;45.226;37.908;2023-07-29T01:53:10;19.59;73.30
74940;HTU21D;63505;45.226;37.908;2023-07-29T01:55:37;19.56;73.41
74940;HTU21D;63505;45.226;37.908;2023-07-29T01:58:02;19.54;73.50
74940;HTU21D;63505;45.226;37.908;2023-07-29T02:00:29;19.51;73.64
74940;HTU21D;63505;45.226;37.908;2023-07-29T02:02:54;19.50;73.76
74940;HTU21D;63505;45.226;37.908;2023-07-29T02:05:20;19.46;73.86
74940;HTU21D;63505;45.226;37.908;2023-07-29T02:07:46;19.43;73.93
74940;HTU21D;63505;45.226;37.908;2023-07-29T02:10:14;19.42;73.98
74940;HTU21D;63505;45.226;37.908;2023-07-29T02:12:40;19.41;74.04
74940;HTU21D;63505;45.226;37.908;2023-07-29T02:15:06;19.39;74.14
74940;HTU21D;63505;45.226;37.908;2023-07-29T02:17:32;19.36;74.27
74940;HTU21D;63505;45.226;37.908;2023-07-29T02:19:58;19.32;74.37
74940;HTU21D;63505;45.226;37.908;2023-07-29T02:22:24;19.27;74.47
74940;HTU21D;63505;45.226;37.908;2023-07-29T02:24:50;19.24;74.58
74940;HTU21D;63505;45.226;37.908;2023-07-29T02:27:16;19.20;74.73
74940;HTU21D;63505;45.226;37.908;2023-07-29T02:29:42;19.14;74.89
74940;HTU21D;63505;45.226;37.908;2023-07-29T02:32:08;19.10;75.03
74940;HTU21D;63505;45.226;37.908;2023-07-29T02:34:34;19.07;75.15
74940;HTU21D;63505;45.226;37.908;2023-07-29T02:37:00;19.03;75.29
74940;HTU21D;63505;45.226;37.908;2023-07-29T02:39:26;19.00;75.41
74940;HTU21D;63505;45.226;37.908;2023-07-29T02:41:52;18.98;75.52
74940;HTU21D;63505;45.226;37.908;2023-07-29T02:44:18;18.97;75.60
74940;HTU21D;63505;45.226;37.908;2023-07-29T02:46:45;18.95;75.67
74940;HTU21D;63505;45.226;37.908;2023-07-29T02:49:11;18.94;75.76
74940;HTU21D;63505;45.226;37.908;2023-07-29T02:51:37;18.95;75.89
74940;HTU21D;63505;45.226;37.908;2023-07-29T02:54:03;18.99;75.90
74940;HTU21D;63505;45.226;37.908;2023-07-29T02:56:29;19.06;75.87
74940;HTU21D;63505;45.226;37.908;2023-07-29T02:58:56;19.09;75.89
74940;HTU21D;63505;45.226;37.908;2023-07-29T03:01:23;19.14;75.88
74940;HTU21D;63505;45.226;37.908;2023-07-29T03:03:51;19.17;75.83
74940;HTU21D;63505;45.226;37.908;2023-07-29T03:06:17;19.24;75.83
74940;HTU21D;63505;45.226;37.908;2023-07-29T03:08:42;19.27;75.90
74940;HTU21D;63505;45.226;37.908;2023-07-29T03:11:11;19.32;75.89
74940;HTU21D;63505;45.226;37.908;2023-07-29T03:13:38;19.38;75.85
74940;HTU21D;63505;45.226;37.908;2023-07-29T03:16:10;19.42;75.84
74940;HTU21D;63505;45.226;37.908;2023-07-29T03:18:38;19.48;75.79
74940;HTU21D;63505;45.226;37.908;2023-07-29T03:21:04;19.55;75.73
74940;HTU21D;63505;45.226;37.908;2023-07-29T03:23:31;19.60;75.70
74940;HTU21D;63505;45.226;37.908;2023-07-29T03:26:01;19.69;75.70
74940;HTU21D;63505;45.226;37.908;2023-07-29T03:28:33;19.74;75.60
74940;HTU21D;63505;45.226;37.908;2023-07-29T03:30:59;19.82;75.55
74940;HTU21D;63505;45.226;37.908;2023-07-29T03:33:26;19.89;75.47
74940;HTU21D;63505;45.226;37.908;2023-07-29T03:35:52;19.96;75.41
74940;HTU21D;63505;45.226;37.908;2023-07-29T03:38:18;20.05;75.31
74940;HTU21D;63505;45.226;37.908;2023-07-29T03:40:45;20.13;75.21
74940;HTU21D;63505;45.226;37.908;2023-07-29T03:43:11;20.19;75.12
74940;HTU21D;63505;45.226;37.908;2023-07-29T03:45:39;20.28;75.00
74940;HTU21D;63505;45.226;37.908;2023-07-29T03:48:05;20.33;74.94
74940;HTU21D;63505;45.226;37.908;2023-07-29T03:50:33;20.42;74.85
74940;HTU21D;63505;45.226;37.908;2023-07-29T03:52:59;20.49;74.75
74940;HTU21D;63505;45.226;37.908;2023-07-29T03:55:25;20.59;74.64
74940;HTU21D;63505;45.226;37.908;2023-07-29T03:57:51;20.70;74.51
74940;HTU21D;63505;45.226;37.908;2023-07-29T04:00:17;20.77;74.38
74940;HTU21D;63505;45.226;37.908;2023-07-29T04:02:46;20.86;74.28
74940;HTU21D;63505;45.226;37.908;2023-07-29T04:05:12;20.95;74.13
74940;HTU21D;63505;45.226;37.908;2023-07-29T04:07:38;21.06;73.98
74940;HTU21D;63505;45.226;37.908;2023-07-29T04:10:05;21.17;73.84
74940;HTU21D;63505;45.226;37.908;2023-07-29T04:12:31;21.27;73.73
74940;HTU21D;63505;45.226;37.908;2023-07-29T04:14:57;21.38;73.59
74940;HTU21D;63505;45.226;37.908;2023-07-29T04:17:23;21.48;73.44
74940;HTU21D;63505;45.226;37.908;2023-07-29T04:19:49;21.59;73.25
74940;HTU21D;63505;45.226;37.908;2023-07-29T04:22:16;21.68;73.02
74940;HTU21D;63505;45.226;37.908;2023-07-29T04:24:42;21.79;72.82
74940;HTU21D;63505;45.226;37.908;2023-07-29T04:27:09;21.89;72.66
74940;HTU21D;63505;45.226;37.908;2023-07-29T04:29:35;21.96;72.56
74940;HTU21D;63505;45.226;37.908;2023-07-29T04:32:02;22.06;72.41
74940;HTU21D;63505;45.226;37.908;2023-07-29T04:34:28;22.12;72.22
74940;HTU21D;63505;45.226;37.908;2023-07-29T04:36:54;22.21;72.03
74940;HTU21D;63505;45.226;37.908;2023-07-29T04:39:20;22.31;71.86
74940;HTU21D;63505;45.226;37.908;2023-07-29T04:41:46;22.39;71.67
74940;HTU21D;63505;45.226;37.908;2023-07-29T04:44:14;22.49;71.43
74940;HTU21D;63505;45.226;37.908;2023-07-29T04:46:39;22.58;71.19
74940;HTU21D;63505;45.226;37.908;2023-07-29T04:49:05;22.68;70.97
74940;HTU21D;63505;45.226;37.908;2023-07-29T04:51:31;22.78;70.77
74940;HTU21D;63505;45.226;37.908;2023-07-29T04:53:58;22.88;70.45
74940;HTU21D;63505;45.226;37.908;2023-07-29T04:56:24;22.97;70.11
74940;HTU21D;63505;45.226;37.908;2023-07-29T04:58:50;23.05;69.77
74940;HTU21D;63505;45.226;37.908;2023-07-29T05:01:16;23.14;69.42
74940;HTU21D;63505;45.226;37.908;2023-07-29T05:03:42;23.23;69.06
74940;HTU21D;63505;45.226;37.908;2023-07-29T05:06:08;23.34;68.78
74940;HTU21D;63505;45.226;37.908;2023-07-29T05:08:34;23.45;68.48
74940;HTU21D;63505;45.226;37.908;2023-07-29T05:11:00;23.53;68.08
74940;HTU21D;63505;45.226;37.908;2023-07-29T05:13:26;23.52;67.81
74940;HTU21D;63505;45.226;37.908;2023-07-29T05:15:52;23.60;67.49
74940;HTU21D;63505;45.226;37.908;2023-07-29T05:18:18;23.71;66.82
74940;HTU21D;63505;45.226;37.908;2023-07-29T05:20:44;23.77;66.24
74940;HTU21D;63505;45.226;37.908;2023-07-29T05:23:10;23.88;65.79
74940;HTU21D;63505;45.226;37.908;2023-07-29T05:25:36;23.99;65.51
74940;HTU21D;63505;45.226;37.908;2023-07-29T05:28:02;24.11;65.02
74940;HTU21D;63505;45.226;37.908;2023-07-29T05:30:30;24.23;64.71
74940;HTU21D;63505;45.226;37.908;2023-07-29T05:33:06;24.31;64.25
74940;HTU21D;63505;45.226;37.908;2023-07-29T05:35:35;24.41;64.02
74940;HTU21D;63505;45.226;37.908;2023-07-29T05:38:01;24.51;63.51
74940;HTU21D;63505;45.226;37.908;2023-07-29T05:40:29;24.61;63.24
74940;HTU21D;63505;45.226;37.908;2023-07-29T05:42:55;24.71;62.76
74940;HTU21D;63505;45.226;37.908;2023-07-29T05:45:23;24.76;62.41
74940;HTU21D;63505;45.226;37.908;2023-07-29T05:47:50;24.84;62.22
74940;HTU21D;63505;45.226;37.908;2023-07-29T05:50:17;24.95;61.67
74940;HTU21D;63505;45.226;37.908;2023-07-29T05:52:43;25.02;61.25
74940;HTU21D;63505;45.226;37.908;2023-07-29T05:55:09;25.12;60.67
74940;HTU21D;63505;45.226;37.908;2023-07-29T05:57:35;25.20;60.05
74940;HTU21D;63505;45.226;37.908;2023-07-29T06:00:00;25.29;59.30
74940;HTU21D;63505;45.226;37.908;2023-07-29T06:02:27;25.39;58.64
74940;HTU21D;63505;45.226;37.908;2023-07-29T06:04:53;25.49;57.70
74940;HTU21D;63505;45.226;37.908;2023-07-29T06:07:19;25.51;56.85
74940;HTU21D;63505;45.226;37.908;2023-07-29T06:09:45;25.54;56.15
74940;HTU21D;63505;45.226;37.908;2023-07-29T06:12:12;25.60;55.61
74940;HTU21D;63505;45.226;37.908;2023-07-29T06:14:38;25.67;55.17
74940;HTU21D;63505;45.226;37.908;2023-07-29T06:17:04;25.76;54.73
74940;HTU21D;63505;45.226;37.908;2023-07-29T06:19:30;25.82;53.94
74940;HTU21D;63505;45.226;37.908;2023-07-29T06:21:56;25.82;53.36
74940;HTU21D;63505;45.226;37.908;2023-07-29T06:24:22;25.84;52.93
74940;HTU21D;63505;45.226;37.908;2023-07-29T06:26:48;25.90;52.77
74940;HTU21D;63505;45.226;37.908;2023-07-29T06:29:14;25.93;52.59
74940;HTU21D;63505;45.226;37.908;2023-07-29T06:31:39;26.02;52.48
74940;HTU21D;63505;45.226;37.908;2023-07-29T06:34:05;26.09;52.04
74940;HTU21D;63505;45.226;37.908;2023-07-29T06:36:31;26.16;51.72
74940;HTU21D;63505;45.226;37.908;2023-07-29T06:38:57;26.24;51.49
74940;HTU21D;63505;45.226;37.908;2023-07-29T06:41:23;26.34;51.37
74940;HTU21D;63505;45.226;37.908;2023-07-29T06:43:49;26.42;50.98
74940;HTU21D;63505;45.226;37.908;2023-07-29T06:46:15;26.47;50.75
74940;HTU21D;63505;45.226;37.908;2023-07-29T06:48:41;26.47;50.51
74940;HTU21D;63505;45.226;37.908;2023-07-29T06:51:07;26.52;50.45
74940;HTU21D;63505;45.226;37.908;2023-07-29T06:53:32;26.58;50.21
74940;HTU21D;63505;45.226;37.908;2023-07-29T06:55:58;26.62;50.06
74940;HTU21D;63505;45.226;37.908;2023-07-29T06:58:25;26.66;50.12
74940;HTU21D;63505;45.226;37.908;2023-07-29T07:00:51;26.75;49.90
74940;HTU21D;63505;45.226;37.908;2023-07-29T07:03:16;26.78;49.55
74940;HTU21D;63505;45.226;37.908;2023-07-29T07:05:42;26.81;49.47
74940;HTU21D;63505;45.226;37.908;2023-07-29T07:08:08;26.92;49.31
74940;HTU21D;63505;45.226;37.908;2023-07-29T07:10:34;27.00;49.18
74940;HTU21D;63505;45.226;37.908;2023-07-29T07:13:00;27.10;49.11
74940;HTU21D;63505;45.226;37.908;2023-07-29T07:15:26;27.11;49.19
74940;HTU21D;63505;45.226;37.908;2023-07-29T07:17:52;27.21;49.24
74940;HTU21D;63505;45.226;37.908;2023-07-29T07:20:18;27.29;49.08
74940;HTU21D;63505;45.226;37.908;2023-07-29T07:22:44;27.37;48.88
74940;HTU21D;63505;45.226;37.908;2023-07-29T07:25:10;27.36;48.24
74940;HTU21D;63505;45.226;37.908;2023-07-29T07:27:36;27.29;47.81
74940;HTU21D;63505;45.226;37.908;2023-07-29T07:30:03;27.28;47.31
74940;HTU21D;63505;45.226;37.908;2023-07-29T07:32:29;27.27;47.07
74940;HTU21D;63505;45.226;37.908;2023-07-29T07:34:55;27.26;46.83
74940;HTU21D;63505;45.226;37.908;2023-07-29T07:37:21;27.30;46.86
74940;HTU21D;63505;45.226;37.908;2023-07-29T07:39:46;27.41;46.73
74940;HTU21D;63505;45.226;37.908;2023-07-29T07:42:12;27.54;46.22
74940;HTU21D;63505;45.226;37.908;2023-07-29T07:44:38;27.60;45.90
74940;HTU21D;63505;45.226;37.908;2023-07-29T07:47:04;27.65;45.86
74940;HTU21D;63505;45.226;37.908;2023-07-29T07:49:31;27.75;45.75
74940;HTU21D;63505;45.226;37.908;2023-07-29T07:51:56;27.81;45.41
74940;HTU21D;63505;45.226;37.908;2023-07-29T07:54:22;27.89;45.32
74940;HTU21D;63505;45.226;37.908;2023-07-29T07:56:48;28.00;45.25
74940;HTU21D;63505;45.226;37.908;2023-07-29T07:59:14;28.04;45.10
74940;HTU21D;63505;45.226;37.908;2023-07-29T08:01:40;28.04;45.23
74940;HTU21D;63505;45.226;37.908;2023-07-29T08:04:06;28.09;45.31
74940;HTU21D;63505;45.226;37.908;2023-07-29T08:06:32;28.19;45.37
74940;HTU21D;63505;45.226;37.908;2023-07-29T08:08:58;28.23;45.38
74940;HTU21D;63505;45.226;37.908;2023-07-29T08:11:25;28.21;45.16
74940;HTU21D;63505;45.226;37.908;2023-07-29T08:13:51;28.25;45.25
74940;HTU21D;63505;45.226;37.908;2023-07-29T08:16:17;28.29;45.13
74940;HTU21D;63505;45.226;37.908;2023-07-29T08:18:43;28.32;44.96
74940;HTU21D;63505;45.226;37.908;2023-07-29T08:21:09;28.33;44.64
74940;HTU21D;63505;45.226;37.908;2023-07-29T08:23:36;28.37;44.56
74940;HTU21D;63505;45.226;37.908;2023-07-29T08:26:04;28.46;44.26
74940;HTU21D;63505;45.226;37.908;2023-07-29T08:28:33;28.55;43.97
74940;HTU21D;63505;45.226;37.908;2023-07-29T08:30:59;28.55;43.93
74940;HTU21D;63505;45.226;37.908;2023-07-29T08:33:25;28.59;43.84
74940;HTU21D;63505;45.226;37.908;2023-07-29T08:35:51;28.59;43.80
74940;HTU21D;63505;45.226;37.908;2023-07-29T08:38:17;28.68;43.64
74940;HTU21D;63505;45.226;37.908;2023-07-29T08:40:51;28.70;43.35
74940;HTU21D;63505;45.226;37.908;2023-07-29T08:43:19;28.80;43.55
74940;HTU21D;63505;45.226;37.908;2023-07-29T08:45:46;28.89;43.56
74940;HTU21D;63505;45.226;37.908;2023-07-29T08:48:15;28.89;43.19
74940;HTU21D;63505;45.226;37.908;2023-07-29T08:50:44;28.89;43.41
74940;HTU21D;63505;45.226;37.908;2023-07-29T08:53:11;29.01;43.41
74940;HTU21D;63505;45.226;37.908;2023-07-29T08:55:37;29.09;42.87
74940;HTU21D;63505;45.226;37.908;2023-07-29T08:58:03;29.06;42.59
74940;HTU21D;63505;45.226;37.908;2023-07-29T09:00:29;29.11;42.74
74940;HTU21D;63505;45.226;37.908;2023-07-29T09:02:56;29.12;42.68
74940;HTU21D;63505;45.226;37.908;2023-07-29T09:05:24;29.16;42.73
74940;HTU21D;63505;45.226;37.908;2023-07-29T09:07:51;29.24;42.75
74940;HTU21D;63505;45.226;37.908;2023-07-29T09:10:21;29.34;42.78
74940;HTU21D;63505;45.226;37.908;2023-07-29T09:12:49;29.35;42.67
74940;HTU21D;63505;45.226;37.908;2023-07-29T09:15:30;29.30;42.39
74940;HTU21D;63505;45.226;37.908;2023-07-29T09:17:57;29.33;42.42
74940;HTU21D;63505;45.226;37.908;2023-07-29T09:20:27;29.30;42.07
74940;HTU21D;63505;45.226;37.908;2023-07-29T09:22:54;29.26;41.84
74940;HTU21D;63505;45.226;37.908;2023-07-29T09:25:25;29.28;41.42
74940;HTU21D;63505;45.226;37.908;2023-07-29T09:27:51;29.27;41.18
74940;HTU21D;63505;45.226;37.908;2023-07-29T09:30:18;29.28;41.19
74940;HTU21D;63505;45.226;37.908;2023-07-29T09:32:44;29.32;40.81
74940;HTU21D;63505;45.226;37.908;2023-07-29T09:35:11;29.31;40.52
74940;HTU21D;63505;45.226;37.908;2023-07-29T09:37:40;29.31;40.20
74940;HTU21D;63505;45.226;37.908;2023-07-29T09:40:07;29.27;40.31
74940;HTU21D;63505;45.226;37.908;2023-07-29T09:42:39;29.27;40.20
74940;HTU21D;63505;45.226;37.908;2023-07-29T09:45:05;29.22;40.12
74940;HTU21D;63505;45.226;37.908;2023-07-29T09:47:31;29.29;40.07
74940;HTU21D;63505;45.226;37.908;2023-07-29T09:49:56;29.35;40.03
74940;HTU21D;63505;45.226;37.908;2023-07-29T09:52:23;29.46;40.13
74940;HTU21D;63505;45.226;37.908;2023-07-29T09:54:49;29.51;39.96
74940;HTU21D;63505;45.226;37.908;2023-07-29T09:57:17;29.50;39.96
74940;HTU21D;63505;45.226;37.908;2023-07-29T09:59:55;29.56;39.78
74940;HTU21D;63505;45.226;37.908;2023-07-29T10:02:22;29.54;39.97
74940;HTU21D;63505;45.226;37.908;2023-07-29T10:04:48;29.49;40.12
74940;HTU21D;63505;45.226;37.908;2023-07-29T10:07:15;29.43;40.24
74940;HTU21D;63505;45.226;37.908;2023-07-29T10:09:41;29.32;40.27
74940;HTU21D;63505;45.226;37.908;2023-07-29T10:12:09;29.19;40.27
74940;HTU21D;63505;45.226;37.908;2023-07-29T10:14:37;29.14;40.14
74940;HTU21D;63505;45.226;37.908;2023-07-29T10:17:05;29.18;39.78
74940;HTU21D;63505;45.226;37.908;2023-07-29T10:19:31;29.19;39.71
74940;HTU21D;63505;45.226;37.908;2023-07-29T10:21:59;29.28;39.47
74940;HTU21D;63505;45.226;37.908;2023-07-29T10:24:31;29.33;39.39
74940;HTU21D;63505;45.226;37.908;2023-07-29T10:27:00;29.43;39.52
74940;HTU21D;63505;45.226;37.908;2023-07-29T10:29:31;29.52;39.47
74940;HTU21D;63505;45.226;37.908;2023-07-29T10:32:03;29.60;39.59
74940;HTU21D;63505;45.226;37.908;2023-07-29T10:34:31;29.60;39.78
74940;HTU21D;63505;45.226;37.908;2023-07-29T10:36:58;29.44;40.36
74940;HTU21D;63505;45.226;37.908;2023-07-29T10:39:25;29.43;40.69
74940;HTU21D;63505;45.226;37.908;2023-07-29T10:42:04;29.58;41.11
74940;HTU21D;63505;45.226;37.908;2023-07-29T10:47:21;29.63;40.63
74940;HTU21D;63505;45.226;37.908;2023-07-29T10:49:51;29.59;40.85
74940;HTU21D;63505;45.226;37.908;2023-07-29T10:52:37;29.58;40.64
74940;HTU21D;63505;45.226;37.908;2023-07-29T10:55:27;29.67;40.94
74940;HTU21D;63505;45.226;37.908;2023-07-29T11:00:33;29.50;41.15
74940;HTU21D;63505;45.226;37.908;2023-07-29T11:03:01;29.37;41.36
74940;HTU21D;63505;45.226;37.908;2023-07-29T11:08:29;28.91;42.23
74940;HTU21D;63505;45.226;37.908;2023-07-29T11:11:08;28.86;42.58
74940;HTU21D;63505;45.226;37.908;2023-07-29T11:13:37;28.82;42.54
74940;HTU21D;63505;45.226;37.908;2023-07-29T11:16:05;28.86;42.55
74940;HTU21D;63505;45.226;37.908;2023-07-29T11:18:33;28.91;42.33
74940;HTU21D;63505;45.226;37.908;2023-07-29T11:21:00;28.86;42.35
74940;HTU21D;63505;45.226;37.908;2023-07-29T11:23:31;28.73;42.48
74940;HTU21D;63505;45.226;37.908;2023-07-29T11:25:57;28.56;42.87
74940;HTU21D;63505;45.226;37.908;2023-07-29T11:28:24;28.38;43.04
74940;HTU21D;63505;45.226;37.908;2023-07-29T11:30:51;28.23;43.27
74940;HTU21D;63505;45.226;37.908;2023-07-29T11:33:21;28.08;43.35
74940;HTU21D;63505;45.226;37.908;2023-07-29T11:35:48;27.93;43.59
74940;HTU21D;63505;45.226;37.908;2023-07-29T11:38:16;27.76;43.91
74940;HTU21D;63505;45.226;37.908;2023-07-29T11:40:42;27.68;44.22
74940;HTU21D;63505;45.226;37.908;2023-07-29T11:43:08;27.58;44.53
74940;HTU21D;63505;45.226;37.908;2023-07-29T11:45:34;27.50;44.80
74940;HTU21D;63505;45.226;37.908;2023-07-29T11:48:03;27.43;44.93
74940;HTU21D;63505;45.226;37.908;2023-07-29T11:50:29;27.37;44.97
74940;HTU21D;63505;45.226;37.908;2023-07-29T11:52:55;27.34;45.13
74940;HTU21D;63505;45.226;37.908;2023-07-29T11:55:21;27.38;45.25
74940;HTU21D;63505;45.226;37.908;2023-07-29T11:57:51;27.42;45.13
74940;HTU21D;63505;45.226;37.908;2023-07-29T12:00:17;27.46;45.15
74940;HTU21D;63505;45.226;37.908;2023-07-29T12:02:45;27.66;45.08
74940;HTU21D;63505;45.226;37.908;2023-07-29T12:05:12;27.88;44.93
74940;HTU21D;63505;45.226;37.908;2023-07-29T12:07:38;28.04;44.88
74940;HTU21D;63505;45.226;37.908;2023-07-29T12:10:05;28.29;44.92
74940;HTU21D;63505;45.226;37.908;2023-07-29T12:12:31;28.60;44.80
74940;HTU21D;63505;45.226;37.908;2023-07-29T12:14:58;28.78;44.49
74940;HTU21D;63505;45.226;37.908;2023-07-29T12:17:24;28.67;44.45
74940;HTU21D;63505;45.226;37.908;2023-07-29T12:19:49;28.44;44.63
74940;HTU21D;63505;45.226;37.908;2023-07-29T12:22:19;28.16;44.88
74940;HTU21D;63505;45.226;37.908;2023-07-29T12:24:46;27.93;45.00
74940;HTU21D;63505;45.226;37.908;2023-07-29T12:27:13;27.70;45.08
74940;HTU21D;63505;45.226;37.908;2023-07-29T12:29:43;27.53;45.10
74940;HTU21D;63505;45.226;37.908;2023-07-29T12:32:10;27.45;45.18
74940;HTU21D;63505;45.226;37.908;2023-07-29T12:34:37;27.54;45.19
74940;HTU21D;63505;45.226;37.908;2023-07-29T12:37:05;27.76;44.95
74940;HTU21D;63505;45.226;37.908;2023-07-29T12:39:33;28.01;44.65
74940;HTU21D;63505;45.226;37.908;2023-07-29T12:42:00;28.20;44.31
74940;HTU21D;63505;45.226;37.908;2023-07-29T12:44:32;28.32;44.07
74940;HTU21D;63505;45.226;37.908;2023-07-29T12:46:59;28.43;44.03
74940;HTU21D;63505;45.226;37.908;2023-07-29T12:49:25;28.50;44.03
74940;HTU21D;63505;45.226;37.908;2023-07-29T12:51:51;28.59;43.78
74940;HTU21D;63505;45.226;37.908;2023-07-29T12:54:16;28.62;43.35
74940;HTU21D;63505;45.226;37.908;2023-07-29T12:56:42;28.67;43.33
74940;HTU21D;63505;45.226;37.908;2023-07-29T12:59:08;28.74;43.25
74940;HTU21D;63505;45.226;37.908;2023-07-29T13:01:34;28.76;43.02
74940;HTU21D;63505;45.226;37.908;2023-07-29T13:04:00;28.78;42.81
74940;HTU21D;63505;45.226;37.908;2023-07-29T13:06:26;28.83;42.71
74940;HTU21D;63505;45.226;37.908;2023-07-29T13:08:52;28.80;42.48
74940;HTU21D;63505;45.226;37.908;2023-07-29T13:11:18;28.75;42.46
74940;HTU21D;63505;45.226;37.908;2023-07-29T13:13:43;28.71;42.48
74940;HTU21D;63505;45.226;37.908;2023-07-29T13:16:11;28.72;42.35
74940;HTU21D;63505;45.226;37.908;2023-07-29T13:18:38;28.75;42.25
74940;HTU21D;63505;45.226;37.908;2023-07-29T13:21:04;28.82;42.26
74940;HTU21D;63505;45.226;37.908;2023-07-29T13:23:30;28.90;42.28
74940;HTU21D;63505;45.226;37.908;2023-07-29T13:25:57;28.88;41.93
74940;HTU21D;63505;45.226;37.908;2023-07-29T13:28:23;28.85;41.87
74940;HTU21D;63505;45.226;37.908;2023-07-29T13:30:49;28.84;41.87
74940;HTU21D;63505;45.226;37.908;2023-07-29T13:33:15;28.84;41.75
74940;HTU21D;63505;45.226;37.908;2023-07-29T13:35:41;28.83;41.59
74940;HTU21D;63505;45.226;37.908;2023-07-29T13:38:07;28.85;41.41
74940;HTU21D;63505;45.226;37.908;2023-07-29T13:40:33;28.82;41.29
74940;HTU21D;63505;45.226;37.908;2023-07-29T13:42:58;28.83;41.38
74940;HTU21D;63505;45.226;37.908;2023-07-29T13:45:24;28.80;41.22
74940;HTU21D;63505;45.226;37.908;2023-07-29T13:47:50;28.78;41.19
74940;HTU21D;63505;45.226;37.908;2023-07-29T13:50:17;28.78;41.11
74940;HTU21D;63505;45.226;37.908;2023-07-29T13:52:43;28.77;41.15
74940;HTU21D;63505;45.226;37.908;2023-07-29T13:55:10;28.74;41.16
74940;HTU21D;63505;45.226;37.908;2023-07-29T13:57:37;28.73;41.16
74940;HTU21D;63505;45.226;37.908;2023-07-29T14:00:05;28.74;41.22
74940;HTU21D;63505;45.226;37.908;2023-07-29T14:02:37;28.74;41.18
74940;HTU21D;63505;45.226;37.908;2023-07-29T14:05:03;28.71;41.17
74940;HTU21D;63505;45.226;37.908;2023-07-29T14:07:29;28.71;41.33
74940;HTU21D;63505;45.226;37.908;2023-07-29T14:09:55;28.73;41.38
74940;HTU21D;63505;45.226;37.908;2023-07-29T14:12:21;28.65;41.42
74940;HTU21D;63505;45.226;37.908;2023-07-29T14:14:47;28.53;41.53
74940;HTU21D;63505;45.226;37.908;2023-07-29T14:17:12;28.45;41.49
74940;HTU21D;63505;45.226;37.908;2023-07-29T14:19:38;28.41;41.41
74940;HTU21D;63505;45.226;37.908;2023-07-29T14:22:04;28.41;41.26
74940;HTU21D;63505;45.226;37.908;2023-07-29T14:24:30;28.42;41.17
74940;HTU21D;63505;45.226;37.908;2023-07-29T14:26:56;28.40;41.26
74940;HTU21D;63505;45.226;37.908;2023-07-29T14:29:22;28.35;41.19
74940;HTU21D;63505;45.226;37.908;2023-07-29T14:31:48;28.28;41.13
74940;HTU21D;63505;45.226;37.908;2023-07-29T14:34:14;28.26;41.12
74940;HTU21D;63505;45.226;37.908;2023-07-29T14:36:40;28.25;41.29
74940;HTU21D;63505;45.226;37.908;2023-07-29T14:39:06;28.25;41.42
74940;HTU21D;63505;45.226;37.908;2023-07-29T14:41:32;28.24;41.42
74940;HTU21D;63505;45.226;37.908;2023-07-29T14:43:58;28.20;41.54
74940;HTU21D;63505;45.226;37.908;2023-07-29T14:46:23;28.16;41.70
74940;HTU21D;63505;45.226;37.908;2023-07-29T14:48:49;28.13;41.93
74940;HTU21D;63505;45.226;37.908;2023-07-29T14:51:15;28.08;41.97
74940;HTU21D;63505;45.226;37.908;2023-07-29T14:53:41;28.00;42.15
74940;HTU21D;63505;45.226;37.908;2023-07-29T14:56:07;27.93;42.37
74940;HTU21D;63505;45.226;37.908;2023-07-29T14:58:33;27.87;42.54
74940;HTU21D;63505;45.226;37.908;2023-07-29T15:00:59;27.83;42.63
74940;HTU21D;63505;45.226;37.908;2023-07-29T15:03:25;27.80;42.72
74940;HTU21D;63505;45.226;37.908;2023-07-29T15:05:51;27.72;42.73
74940;HTU21D;63505;45.226;37.908;2023-07-29T15:08:17;27.67;42.84
74940;HTU21D;63505;45.226;37.908;2023-07-29T15:10:49;27.61;42.85
74940;HTU21D;63505;45.226;37.908;2023-07-29T15:13:15;27.57;42.88